createdAt,value
2023-03-02T00:00:04.088Z,1003.67
2023-03-02T00:01:04.084Z,1003.70
2023-03-02T00:02:03.922Z,1003.66
2023-03-02T00:03:03.968Z,1003.74
2023-03-02T00:04:03.921Z,1003.68
2023-03-02T00:05:03.809Z,1003.70
2023-03-02T00:06:03.707Z,1003.76
2023-03-02T00:07:03.636Z,1003.74
2023-03-02T00:08:03.577Z,1003.74
2023-03-02T00:09:03.792Z,1003.79
2023-03-02T00:10:03.446Z,1003.79
2023-03-02T00:11:03.350Z,1003.76
2023-03-02T00:12:03.342Z,1003.79
2023-03-02T00:13:03.296Z,1003.78
2023-03-02T00:14:03.160Z,1003.78
2023-03-02T00:15:03.168Z,1003.75
2023-03-02T00:16:03.145Z,1003.73
2023-03-02T00:17:03.022Z,1003.73
2023-03-02T00:18:02.908Z,1003.76
2023-03-02T00:19:02.872Z,1003.77
2023-03-02T00:20:02.808Z,1003.75
2023-03-02T00:21:02.757Z,1003.77
2023-03-02T00:22:02.649Z,1003.76
2023-03-02T00:23:02.636Z,1003.73
2023-03-02T00:24:02.551Z,1003.74
2023-03-02T00:25:02.497Z,1003.72
2023-03-02T00:26:02.452Z,1003.68
2023-03-02T00:27:02.361Z,1003.69
2023-03-02T00:28:02.291Z,1003.70
2023-03-02T00:29:02.215Z,1003.67
2023-03-02T00:30:02.216Z,1003.69
2023-03-02T00:31:02.127Z,1003.70
2023-03-02T00:32:02.032Z,1003.69
2023-03-02T00:33:02.036Z,1003.65
2023-03-02T00:34:01.918Z,1003.65
2023-03-02T00:35:01.832Z,1003.68
2023-03-02T00:36:01.925Z,1003.67
2023-03-02T00:37:01.714Z,1003.69
2023-03-02T00:38:01.626Z,1003.64
2023-03-02T00:39:01.644Z,1003.66
2023-03-02T00:40:01.521Z,1003.69
2023-03-02T00:41:01.436Z,1003.67
2023-03-02T00:42:01.377Z,1003.59
2023-03-02T00:43:01.315Z,1003.62
2023-03-02T00:44:01.268Z,1003.63
2023-03-02T00:45:01.243Z,1003.59
2023-03-02T00:46:01.140Z,1003.57
2023-03-02T00:47:01.079Z,1003.62
2023-03-02T00:48:01.033Z,1003.62
2023-03-02T00:49:00.975Z,1003.57
2023-03-02T00:50:00.905Z,1003.59
2023-03-02T00:51:00.837Z,1003.59
2023-03-02T00:52:00.762Z,1003.57
2023-03-02T00:53:00.730Z,1003.55
2023-03-02T00:54:00.636Z,1003.57
2023-03-02T00:55:00.570Z,1003.51
2023-03-02T00:56:00.501Z,1003.54
2023-03-02T00:57:00.461Z,1003.50
2023-03-02T00:58:00.388Z,1003.50
2023-03-02T00:59:00.298Z,1003.49
2023-03-02T01:00:00.281Z,1003.52
2023-03-02T01:01:00.214Z,1003.51
2023-03-02T01:02:00.256Z,1003.51
2023-03-02T01:03:21.119Z,1003.54
2023-03-02T01:03:59.985Z,1003.47
2023-03-02T01:04:59.916Z,1003.47
2023-03-02T01:05:59.872Z,1003.46
2023-03-02T01:06:59.837Z,1003.46
2023-03-02T01:07:59.736Z,1003.47
2023-03-02T01:09:20.665Z,1003.45
2023-03-02T01:09:59.647Z,1003.41
2023-03-02T01:10:59.560Z,1003.41
2023-03-02T01:11:59.524Z,1003.40
2023-03-02T01:12:59.429Z,1003.41
2023-03-02T01:13:59.379Z,1003.35
2023-03-02T01:14:59.342Z,1003.34
2023-03-02T01:15:59.280Z,1003.37
2023-03-02T01:16:59.182Z,1003.41
2023-03-02T01:17:59.092Z,1003.39
2023-03-02T01:18:59.035Z,1003.33
2023-03-02T01:19:59.016Z,1003.36
2023-03-02T01:20:58.928Z,1003.34
2023-03-02T01:21:58.863Z,1003.38
2023-03-02T01:22:58.789Z,1003.32
2023-03-02T01:23:58.728Z,1003.36
2023-03-02T01:24:58.669Z,1003.32
2023-03-02T01:25:58.605Z,1003.32
2023-03-02T01:26:58.528Z,1003.33
2023-03-02T01:27:58.500Z,1003.33
2023-03-02T01:28:58.409Z,1003.29
2023-03-02T01:29:58.383Z,1003.30
2023-03-02T01:30:58.273Z,1003.31
2023-03-02T01:31:58.365Z,1003.34
2023-03-02T01:32:58.146Z,1003.35
2023-03-02T01:33:58.099Z,1003.37
2023-03-02T01:34:58.058Z,1003.36
2023-03-02T01:35:58.036Z,1003.36
2023-03-02T01:36:57.925Z,1003.35
2023-03-02T01:37:57.809Z,1003.37
2023-03-02T01:38:58.108Z,1003.33
2023-03-02T01:39:57.712Z,1003.29
2023-03-02T01:40:57.620Z,1003.25
2023-03-02T01:41:57.572Z,1003.25
2023-03-02T01:42:57.505Z,1003.25
2023-03-02T01:43:57.481Z,1003.27
2023-03-02T01:45:18.403Z,1003.26
2023-03-02T01:45:57.614Z,1003.29
2023-03-02T01:46:57.256Z,1003.26
2023-03-02T01:47:57.204Z,1003.28
2023-03-02T01:48:57.112Z,1003.28
2023-03-02T01:49:57.093Z,1003.26
2023-03-02T01:50:57.028Z,1003.28
2023-03-02T01:51:56.911Z,1003.23
2023-03-02T01:52:56.916Z,1003.22
2023-03-02T01:53:56.812Z,1003.25
2023-03-02T01:54:56.750Z,1003.26
2023-03-02T01:55:56.724Z,1003.24
2023-03-02T01:56:56.633Z,1003.18
2023-03-02T01:57:56.588Z,1003.20
2023-03-02T01:58:56.528Z,1003.21
2023-03-02T01:59:56.460Z,1003.16
2023-03-02T02:00:56.485Z,1003.14
2023-03-02T02:01:56.330Z,1003.15
2023-03-02T02:04:26.588Z,1003.10
2023-03-02T02:05:06.406Z,1003.12
2023-03-02T02:06:06.310Z,1003.10
2023-03-02T02:07:06.270Z,1003.08
2023-03-02T02:08:06.218Z,1003.08
2023-03-02T02:09:06.164Z,1003.05
2023-03-02T02:10:06.136Z,1003.04
2023-03-02T02:11:06.041Z,1003.04
2023-03-02T02:12:05.936Z,1003.00
2023-03-02T02:13:05.886Z,1003.00
2023-03-02T02:14:05.832Z,1002.99
2023-03-02T02:15:05.752Z,1003.00
2023-03-02T02:16:05.711Z,1002.99
2023-03-02T02:17:05.633Z,1002.98
2023-03-02T02:18:05.603Z,1003.02
2023-03-02T02:19:05.515Z,1002.98
2023-03-02T02:20:05.438Z,1002.94
2023-03-02T02:21:05.390Z,1002.94
2023-03-02T02:23:45.266Z,1002.93
2023-03-02T02:24:46.255Z,1002.95
2023-03-02T02:25:46.190Z,1003.00
2023-03-02T02:26:46.088Z,1002.94
2023-03-02T02:27:46.090Z,1002.96
2023-03-02T02:28:45.952Z,1002.94
2023-03-02T02:29:45.910Z,1002.94
2023-03-02T02:30:45.850Z,1002.92
2023-03-02T02:32:06.922Z,1002.94
2023-03-02T02:32:45.783Z,1002.88
2023-03-02T02:33:45.707Z,1002.91
2023-03-02T02:34:45.591Z,1002.93
2023-03-02T02:35:45.541Z,1002.91
2023-03-02T02:36:45.478Z,1002.87
2023-03-02T02:37:45.410Z,1002.85
2023-03-02T02:38:45.316Z,1002.86
2023-03-02T02:39:45.339Z,1002.82
2023-03-02T02:40:45.227Z,1002.87
2023-03-02T02:41:45.154Z,1002.82
2023-03-02T02:42:45.113Z,1002.76
2023-03-02T02:43:45.029Z,1002.82
2023-03-02T02:44:44.962Z,1002.86
2023-03-02T02:45:44.983Z,1002.78
2023-03-02T02:46:44.873Z,1002.79
2023-03-02T02:47:44.877Z,1002.78
2023-03-02T02:48:44.730Z,1002.79
2023-03-02T02:49:44.665Z,1002.79
2023-03-02T02:50:44.582Z,1002.81
2023-03-02T02:51:44.532Z,1002.77
2023-03-02T02:52:44.449Z,1002.80
2023-03-02T02:53:44.386Z,1002.74
2023-03-02T02:54:44.320Z,1002.78
2023-03-02T02:55:44.297Z,1002.78
2023-03-02T02:56:44.225Z,1002.73
2023-03-02T02:58:05.130Z,1002.75
2023-03-02T02:58:44.069Z,1002.74
2023-03-02T02:59:44.059Z,1002.73
2023-03-02T03:00:43.939Z,1002.71
2023-03-02T03:01:43.972Z,1002.73
2023-03-02T03:02:43.819Z,1002.67
2023-03-02T03:04:04.866Z,1002.68
2023-03-02T03:04:43.801Z,1002.69
2023-03-02T03:05:43.622Z,1002.71
2023-03-02T03:06:43.536Z,1002.74
2023-03-02T03:07:43.475Z,1002.72
2023-03-02T03:08:43.448Z,1002.73
2023-03-02T03:09:43.446Z,1002.74
2023-03-02T03:10:43.282Z,1002.76
2023-03-02T03:11:43.274Z,1002.77
2023-03-02T03:12:43.217Z,1002.75
2023-03-02T03:13:43.145Z,1002.74
2023-03-02T03:14:43.047Z,1002.75
2023-03-02T03:15:43.039Z,1002.73
2023-03-02T03:16:42.969Z,1002.72
2023-03-02T03:17:42.886Z,1002.71
2023-03-02T03:18:42.819Z,1002.70
2023-03-02T03:19:42.718Z,1002.67
2023-03-02T03:20:42.670Z,1002.66
2023-03-02T03:21:42.613Z,1002.67
2023-03-02T03:22:42.546Z,1002.66
2023-03-02T03:23:42.478Z,1002.68
2023-03-02T03:24:42.395Z,1002.64
2023-03-02T03:25:42.379Z,1002.61
2023-03-02T03:26:42.282Z,1002.65
2023-03-02T03:27:42.229Z,1002.68
2023-03-02T03:28:42.134Z,1002.69
2023-03-02T03:29:42.091Z,1002.70
2023-03-02T03:30:42.120Z,1002.72
2023-03-02T03:31:41.970Z,1002.68
2023-03-02T03:32:41.908Z,1002.67
2023-03-02T03:34:02.793Z,1002.68
2023-03-02T03:34:41.807Z,1002.70
2023-03-02T03:35:41.734Z,1002.71
2023-03-02T03:36:41.674Z,1002.74
2023-03-02T03:37:41.585Z,1002.74
2023-03-02T03:38:41.503Z,1002.75
2023-03-02T03:39:41.473Z,1002.72
2023-03-02T03:40:41.393Z,1002.76
2023-03-02T03:41:41.338Z,1002.71
2023-03-02T03:42:41.253Z,1002.70
2023-03-02T03:43:41.172Z,1002.74
2023-03-02T03:44:41.112Z,1002.78
2023-03-02T03:48:39.901Z,1002.79
2023-03-02T03:49:40.783Z,1002.81
2023-03-02T03:50:40.771Z,1002.80
2023-03-02T03:52:49.934Z,1002.81
2023-03-02T03:53:50.845Z,1002.81
2023-03-02T03:54:50.808Z,1002.80
2023-03-02T03:55:50.755Z,1002.85
2023-03-02T03:56:50.657Z,1002.81
2023-03-02T03:57:50.635Z,1002.79
2023-03-02T03:58:50.594Z,1002.80
2023-03-02T03:59:50.487Z,1002.82
2023-03-02T04:00:50.431Z,1002.79
2023-03-02T04:01:50.373Z,1002.80
2023-03-02T04:02:50.276Z,1002.80
2023-03-02T04:03:50.254Z,1002.79
2023-03-02T04:04:50.147Z,1002.81
2023-03-02T04:05:50.088Z,1002.81
2023-03-02T04:06:50.055Z,1002.81
2023-03-02T04:07:49.953Z,1002.86
2023-03-02T04:08:49.898Z,1002.86
2023-03-02T04:09:50.094Z,1002.85
2023-03-02T04:10:49.792Z,1002.82
2023-03-02T04:11:49.714Z,1002.84
2023-03-02T04:12:49.641Z,1002.85
2023-03-02T04:13:49.574Z,1002.88
2023-03-02T04:14:49.548Z,1002.89
2023-03-02T04:15:49.537Z,1002.88
2023-03-02T04:16:49.414Z,1002.89
2023-03-02T04:17:49.321Z,1002.83
2023-03-02T04:18:49.232Z,1002.88
2023-03-02T04:19:49.198Z,1002.90
2023-03-02T04:20:49.155Z,1002.90
2023-03-02T04:21:49.119Z,1002.88
2023-03-02T04:22:49.032Z,1002.93
2023-03-02T04:23:48.977Z,1002.89
2023-03-02T04:24:48.903Z,1002.98
2023-03-02T04:25:48.818Z,1002.95
2023-03-02T04:26:48.748Z,1002.89
2023-03-02T04:28:09.649Z,1002.89
2023-03-02T04:28:48.638Z,1002.81
2023-03-02T04:29:48.618Z,1002.81
2023-03-02T04:30:48.551Z,1002.79
2023-03-02T04:31:48.622Z,1002.81
2023-03-02T04:32:48.352Z,1002.80
2023-03-02T04:33:48.351Z,1002.80
2023-03-02T04:34:48.256Z,1002.80
2023-03-02T04:35:48.239Z,1002.76
2023-03-02T04:36:48.108Z,1002.80
2023-03-02T04:37:48.061Z,1002.78
2023-03-02T04:38:48.005Z,1002.80
2023-03-02T04:39:47.971Z,1002.78
2023-03-02T04:40:47.894Z,1002.82
2023-03-02T04:41:47.794Z,1002.79
2023-03-02T04:42:47.766Z,1002.79
2023-03-02T04:43:47.683Z,1002.85
2023-03-02T04:44:47.651Z,1002.81
2023-03-02T04:46:08.603Z,1002.80
2023-03-02T04:46:47.552Z,1002.79
2023-03-02T04:47:47.468Z,1002.82
2023-03-02T04:48:47.410Z,1002.78
2023-03-02T04:49:47.376Z,1002.77
2023-03-02T04:50:47.339Z,1002.75
2023-03-02T04:51:47.180Z,1002.78
2023-03-02T04:52:47.098Z,1002.75
2023-03-02T04:53:47.035Z,1002.83
2023-03-02T04:54:47.018Z,1002.75
2023-03-02T04:55:46.930Z,1002.79
2023-03-02T04:56:46.897Z,1002.77
2023-03-02T04:57:46.831Z,1002.78
2023-03-02T04:58:46.751Z,1002.74
2023-03-02T04:59:46.704Z,1002.74
2023-03-02T05:00:46.583Z,1002.73
2023-03-02T05:01:46.556Z,1002.79
2023-03-02T05:02:46.496Z,1002.77
2023-03-02T05:03:46.444Z,1002.77
2023-03-02T05:04:46.422Z,1002.76
2023-03-02T05:05:46.330Z,1002.76
2023-03-02T05:06:46.216Z,1002.73
2023-03-02T05:07:46.169Z,1002.76
2023-03-02T05:08:46.111Z,1002.75
2023-03-02T05:09:46.083Z,1002.76
2023-03-02T05:10:45.980Z,1002.75
2023-03-02T05:11:45.951Z,1002.74
2023-03-02T05:12:45.831Z,1002.76
2023-03-02T05:13:45.792Z,1002.73
2023-03-02T05:14:45.937Z,1002.75
2023-03-02T05:15:45.692Z,1002.75
2023-03-02T05:16:45.637Z,1002.78
2023-03-02T05:17:45.556Z,1002.78
2023-03-02T05:18:45.496Z,1002.77
2023-03-02T05:19:45.424Z,1002.75
2023-03-02T05:20:45.368Z,1002.77
2023-03-02T05:21:45.293Z,1002.76
2023-03-02T05:22:45.194Z,1002.81
2023-03-02T05:23:45.163Z,1002.78
2023-03-02T05:24:45.122Z,1002.78
2023-03-02T05:25:45.067Z,1002.75
2023-03-02T05:26:44.940Z,1002.75
2023-03-02T05:27:44.950Z,1002.80
2023-03-02T05:28:44.821Z,1002.79
2023-03-02T05:29:44.773Z,1002.79
2023-03-02T05:30:44.744Z,1002.81
2023-03-02T05:31:44.687Z,1002.81
2023-03-02T05:32:44.614Z,1002.75
2023-03-02T05:33:44.558Z,1002.75
2023-03-02T05:34:44.421Z,1002.73
2023-03-02T05:35:44.502Z,1002.71
2023-03-02T05:36:44.312Z,1002.69
2023-03-02T05:37:44.245Z,1002.73
2023-03-02T05:38:44.168Z,1002.69
2023-03-02T05:40:05.120Z,1002.64
2023-03-02T05:40:44.090Z,1002.70
2023-03-02T05:41:43.997Z,1002.67
2023-03-02T05:42:43.933Z,1002.68
2023-03-02T05:43:43.871Z,1002.69
2023-03-02T05:44:43.775Z,1002.71
2023-03-02T05:45:43.738Z,1002.66
2023-03-02T05:46:43.707Z,1002.71
2023-03-02T05:47:43.587Z,1002.69
2023-03-02T05:48:43.527Z,1002.67
2023-03-02T05:49:43.434Z,1002.64
2023-03-02T05:50:43.375Z,1002.66
2023-03-02T05:51:43.360Z,1002.60
2023-03-02T05:52:43.268Z,1002.64
2023-03-02T05:53:43.208Z,1002.62
2023-03-02T05:54:43.133Z,1002.60
2023-03-02T05:55:43.057Z,1002.60
2023-03-02T05:56:43.039Z,1002.62
2023-03-02T05:57:42.974Z,1002.63
2023-03-02T05:58:42.899Z,1002.64
2023-03-02T05:59:42.797Z,1002.66
2023-03-02T06:00:42.758Z,1002.65
2023-03-02T06:01:42.757Z,1002.67
2023-03-02T06:02:42.673Z,1002.71
2023-03-02T06:03:42.614Z,1002.68
2023-03-02T06:04:42.481Z,1002.65
2023-03-02T06:05:42.464Z,1002.67
2023-03-02T06:06:42.378Z,1002.64
2023-03-02T06:07:42.338Z,1002.71
2023-03-02T06:08:42.225Z,1002.71
2023-03-02T06:09:42.199Z,1002.70
2023-03-02T06:10:42.124Z,1002.70
2023-03-02T06:11:42.068Z,1002.67
2023-03-02T06:12:42.029Z,1002.71
2023-03-02T06:13:41.911Z,1002.72
2023-03-02T06:14:41.879Z,1002.71
2023-03-02T06:18:20.190Z,1002.74
2023-03-02T06:19:21.065Z,1002.69
2023-03-02T06:20:21.005Z,1002.70
2023-03-02T06:21:21.024Z,1002.72
2023-03-02T06:22:20.975Z,1002.71
2023-03-02T06:23:20.841Z,1002.75
2023-03-02T06:24:20.796Z,1002.73
2023-03-02T06:25:20.725Z,1002.76
2023-03-02T06:26:20.663Z,1002.75
2023-03-02T06:27:23.079Z,1002.76
2023-03-02T06:28:20.563Z,1002.72
2023-03-02T06:29:20.433Z,1002.78
2023-03-02T06:30:20.428Z,1002.77
2023-03-02T06:31:20.396Z,1002.78
2023-03-02T06:32:20.506Z,1002.69
2023-03-02T06:33:20.261Z,1002.77
2023-03-02T06:34:20.190Z,1002.77
2023-03-02T06:35:20.152Z,1002.75
2023-03-02T06:36:20.142Z,1002.75
2023-03-02T06:37:20.103Z,1002.75
2023-03-02T06:38:19.951Z,1002.78
2023-03-02T06:39:19.867Z,1002.79
2023-03-02T06:40:19.773Z,1002.78
2023-03-02T06:41:19.678Z,1002.80
2023-03-02T06:42:19.655Z,1002.78
2023-03-02T06:43:19.614Z,1002.79
2023-03-02T06:44:19.518Z,1002.78
2023-03-02T06:45:19.461Z,1002.78
2023-03-02T06:46:19.545Z,1002.80
2023-03-02T06:47:19.327Z,1002.83
2023-03-02T06:48:19.293Z,1002.75
2023-03-02T06:49:19.359Z,1002.77
2023-03-02T06:50:19.108Z,1002.75
2023-03-02T06:51:19.117Z,1002.79
2023-03-02T06:52:19.046Z,1002.79
2023-03-02T06:53:18.984Z,1002.82
2023-03-02T06:54:18.867Z,1002.84
2023-03-02T06:55:18.829Z,1002.81
2023-03-02T06:56:18.754Z,1002.83
2023-03-02T06:57:18.695Z,1002.79
2023-03-02T06:58:18.606Z,1002.74
2023-03-02T06:59:18.552Z,1002.74
2023-03-02T07:00:18.502Z,1002.74
2023-03-02T07:01:18.446Z,1002.74
2023-03-02T07:02:18.415Z,1002.79
2023-03-02T07:03:18.378Z,1002.78
2023-03-02T07:04:18.270Z,1002.75
2023-03-02T07:05:18.178Z,1002.73
2023-03-02T07:06:18.133Z,1002.78
2023-03-02T07:07:18.086Z,1002.72
2023-03-02T07:08:18.018Z,1002.72
2023-03-02T07:09:17.966Z,1002.81
2023-03-02T07:10:17.882Z,1002.72
2023-03-02T07:11:17.818Z,1002.75
2023-03-02T07:12:17.732Z,1002.79
2023-03-02T07:13:17.641Z,1002.82
2023-03-02T07:14:17.604Z,1002.80
2023-03-02T07:15:17.531Z,1002.77
2023-03-02T07:16:17.475Z,1002.83
2023-03-02T07:17:17.444Z,1002.78
2023-03-02T07:18:17.384Z,1002.79
2023-03-02T07:19:17.296Z,1002.84
2023-03-02T07:20:17.264Z,1002.86
2023-03-02T07:21:17.184Z,1002.82
2023-03-02T07:22:17.096Z,1002.80
2023-03-02T07:23:17.073Z,1002.88
2023-03-02T07:24:16.979Z,1002.85
2023-03-02T07:25:16.929Z,1002.87
2023-03-02T07:26:16.902Z,1002.85
2023-03-02T07:28:25.962Z,1002.80
2023-03-02T07:29:26.926Z,1002.84
2023-03-02T07:30:26.833Z,1002.84
2023-03-02T07:31:26.781Z,1002.86
2023-03-02T07:32:26.845Z,1002.85
2023-03-02T07:33:26.677Z,1002.81
2023-03-02T07:34:26.581Z,1002.83
2023-03-02T07:35:26.606Z,1002.76
2023-03-02T07:36:26.435Z,1002.76
2023-03-02T07:37:26.398Z,1002.78
2023-03-02T07:38:26.330Z,1002.77
2023-03-02T07:39:26.311Z,1002.80
2023-03-02T07:40:26.211Z,1002.78
2023-03-02T07:41:26.176Z,1002.78
2023-03-02T07:42:26.435Z,1002.75
2023-03-02T07:43:27.876Z,1002.74
2023-03-02T07:44:26.576Z,1002.79
2023-03-02T07:46:35.261Z,1002.80
2023-03-02T07:47:36.054Z,1002.75
2023-03-02T07:48:36.030Z,1002.83
2023-03-02T07:49:36.003Z,1002.83
2023-03-02T07:50:35.881Z,1002.88
2023-03-02T07:51:35.857Z,1002.78
2023-03-02T07:52:35.788Z,1002.75
2023-03-02T07:53:36.591Z,1002.74
2023-03-02T07:54:35.652Z,1002.72
2023-03-02T07:55:35.608Z,1002.75
2023-03-02T07:56:35.503Z,1002.77
2023-03-02T07:57:36.384Z,1002.69
2023-03-02T07:58:35.510Z,1002.76
2023-03-02T07:59:35.349Z,1002.72
2023-03-02T08:00:35.272Z,1002.71
2023-03-02T08:01:35.619Z,1002.72
2023-03-02T08:02:35.198Z,1002.71
2023-03-02T08:03:58.588Z,1002.71
2023-03-02T08:04:35.800Z,1002.70
2023-03-02T08:05:35.024Z,1002.67
2023-03-02T08:06:34.873Z,1002.69
2023-03-02T08:07:34.825Z,1002.74
2023-03-02T08:08:34.810Z,1002.71
2023-03-02T08:09:36.508Z,1002.69
2023-03-02T08:10:34.636Z,1002.72
2023-03-02T08:11:34.910Z,1002.72
2023-03-02T08:12:34.557Z,1002.71
2023-03-02T08:13:34.464Z,1002.69
2023-03-02T08:14:34.514Z,1002.71
2023-03-02T08:15:34.333Z,1002.70
2023-03-02T08:16:34.361Z,1002.71
2023-03-02T08:17:34.423Z,1002.74
2023-03-02T08:18:34.189Z,1002.78
2023-03-02T08:19:34.101Z,1002.72
2023-03-02T08:20:34.019Z,1002.73
2023-03-02T08:21:55.346Z,1002.73
2023-03-02T08:22:33.904Z,1002.69
2023-03-02T08:23:33.866Z,1002.67
2023-03-02T08:24:33.928Z,1002.66
2023-03-02T08:25:33.781Z,1002.66
2023-03-02T08:26:38.060Z,1002.63
2023-03-02T08:27:48.124Z,1002.64
2023-03-02T08:28:42.889Z,1002.65
2023-03-02T08:29:33.462Z,1002.62
2023-03-02T08:30:33.465Z,1002.60
2023-03-02T08:31:33.752Z,1002.61
2023-03-02T08:32:33.342Z,1002.56
2023-03-02T08:33:33.220Z,1002.58
2023-03-02T08:34:34.005Z,1002.59
2023-03-02T08:35:33.314Z,1002.53
2023-03-02T08:36:33.489Z,1002.51
2023-03-02T08:37:32.996Z,1002.51
2023-03-02T08:38:33.664Z,1002.54
2023-03-02T08:39:33.118Z,1002.48
2023-03-02T08:40:32.805Z,1002.47
2023-03-02T08:41:33.098Z,1002.48
2023-03-02T08:42:32.653Z,1002.49
2023-03-02T08:43:32.623Z,1002.50
2023-03-02T08:44:32.522Z,1002.46
2023-03-02T08:45:32.533Z,1002.53
2023-03-02T08:46:32.402Z,1002.44
2023-03-02T08:47:32.318Z,1002.48
2023-03-02T08:48:32.275Z,1002.46
2023-03-02T08:49:32.235Z,1002.46
2023-03-02T08:50:32.145Z,1002.38
2023-03-02T08:51:32.497Z,1002.40
2023-03-02T08:52:32.030Z,1002.44
2023-03-02T08:53:31.961Z,1002.37
2023-03-02T08:54:31.869Z,1002.38
2023-03-02T08:55:31.946Z,1002.40
2023-03-02T08:56:32.193Z,1002.38
2023-03-02T08:57:31.735Z,1002.33
2023-03-02T08:58:31.625Z,1002.30
2023-03-02T08:59:31.567Z,1002.33
2023-03-02T09:00:31.833Z,1002.32
2023-03-02T09:01:36.778Z,1002.31
2023-03-02T09:02:32.391Z,1002.33
2023-03-02T09:03:33.837Z,1002.29
2023-03-02T09:04:31.999Z,1002.31
2023-03-02T09:05:32.545Z,1002.31
2023-03-02T09:06:31.169Z,1002.27
2023-03-02T09:07:31.084Z,1002.27
2023-03-02T09:08:31.056Z,1002.25
2023-03-02T09:09:31.013Z,1002.27
2023-03-02T09:10:30.889Z,1002.30
2023-03-02T09:11:31.078Z,1002.24
2023-03-02T09:12:30.808Z,1002.29
2023-03-02T09:13:30.701Z,1002.27
2023-03-02T09:14:30.644Z,1002.33
2023-03-02T09:15:30.562Z,1002.30
2023-03-02T09:16:30.540Z,1002.33
2023-03-02T09:17:30.447Z,1002.30
2023-03-02T09:18:30.375Z,1002.31
2023-03-02T09:19:30.338Z,1002.30
2023-03-02T09:20:30.273Z,1002.30
2023-03-02T09:21:30.346Z,1002.30
2023-03-02T09:22:30.144Z,1002.27
2023-03-02T09:23:30.077Z,1002.28
2023-03-02T09:24:30.021Z,1002.29
2023-03-02T09:25:29.929Z,1002.29
2023-03-02T09:26:29.887Z,1002.28
2023-03-02T09:27:29.860Z,1002.24
2023-03-02T09:28:29.803Z,1002.30
2023-03-02T09:29:29.746Z,1002.24
2023-03-02T09:30:29.651Z,1002.23
2023-03-02T09:31:30.417Z,1002.25
2023-03-02T09:32:29.693Z,1002.18
2023-03-02T09:36:07.765Z,1002.23
2023-03-02T09:37:08.680Z,1002.23
2023-03-02T09:38:08.649Z,1002.20
2023-03-02T09:39:08.607Z,1002.19
2023-03-02T09:40:08.519Z,1002.19
2023-03-02T09:41:08.464Z,1002.13
2023-03-02T09:42:08.359Z,1002.18
2023-03-02T09:43:08.312Z,1002.17
2023-03-02T09:44:08.225Z,1002.16
2023-03-02T09:45:08.200Z,1002.22
2023-03-02T09:46:08.258Z,1002.25
2023-03-02T09:47:08.064Z,1002.20
2023-03-02T09:48:08.018Z,1002.23
2023-03-02T09:49:07.937Z,1002.25
2023-03-02T09:50:07.903Z,1002.25
2023-03-02T09:51:28.817Z,1002.28
2023-03-02T09:52:07.739Z,1002.25
2023-03-02T09:53:07.660Z,1002.28
2023-03-02T09:54:07.670Z,1002.29
2023-03-02T09:55:07.595Z,1002.29
2023-03-02T09:56:07.536Z,1002.27
2023-03-02T09:57:07.456Z,1002.26
2023-03-02T09:58:07.396Z,1002.29
2023-03-02T09:59:07.287Z,1002.22
2023-03-02T10:00:18.691Z,1002.27
2023-03-02T10:01:07.179Z,1002.22
2023-03-02T10:02:07.152Z,1002.28
2023-03-02T10:03:16.758Z,1002.26
2023-03-02T10:04:07.159Z,1002.28
2023-03-02T10:05:06.938Z,1002.27
2023-03-02T10:06:06.902Z,1002.31
2023-03-02T10:07:06.818Z,1002.27
2023-03-02T10:08:06.735Z,1002.30
2023-03-02T10:09:06.730Z,1002.28
2023-03-02T10:10:06.603Z,1002.25
2023-03-02T10:11:06.611Z,1002.28
2023-03-02T10:12:06.479Z,1002.28
2023-03-02T10:13:06.444Z,1002.25
2023-03-02T10:14:06.529Z,1002.27
2023-03-02T10:15:06.480Z,1002.24
2023-03-02T10:16:08.424Z,1002.25
2023-03-02T10:17:09.484Z,1002.24
2023-03-02T10:18:09.626Z,1002.25
2023-03-02T10:19:06.308Z,1002.28
2023-03-02T10:20:06.236Z,1002.15
2023-03-02T10:21:05.960Z,1002.15
2023-03-02T10:22:05.863Z,1002.19
2023-03-02T10:23:05.837Z,1002.15
2023-03-02T10:24:05.754Z,1002.14
2023-03-02T10:25:05.675Z,1002.14
2023-03-02T10:26:05.749Z,1002.12
2023-03-02T10:27:05.575Z,1002.05
2023-03-02T10:28:07.249Z,1002.11
2023-03-02T10:29:06.500Z,1002.11
2023-03-02T10:30:05.391Z,1002.12
2023-03-02T10:31:05.578Z,1002.05
2023-03-02T10:32:05.261Z,1002.02
2023-03-02T10:33:05.313Z,1002.01
2023-03-02T10:34:05.138Z,1002.02
2023-03-02T10:35:05.784Z,1002.04
2023-03-02T10:36:05.012Z,1002.00
2023-03-02T10:37:04.953Z,1002.03
2023-03-02T10:38:04.884Z,1001.99
2023-03-02T10:39:05.410Z,1002.03
2023-03-02T10:40:04.764Z,1001.93
2023-03-02T10:41:04.675Z,1002.00
2023-03-02T10:42:04.704Z,1001.98
2023-03-02T10:43:04.633Z,1002.01
2023-03-02T10:44:04.516Z,1002.01
2023-03-02T10:45:25.407Z,1001.96
2023-03-02T10:46:04.461Z,1001.97
2023-03-02T10:47:04.336Z,1001.98
2023-03-02T10:48:04.290Z,1001.99
2023-03-02T10:49:04.226Z,1001.95
2023-03-02T10:50:04.143Z,1001.95
2023-03-02T10:51:04.088Z,1002.00
2023-03-02T10:52:05.241Z,1002.01
2023-03-02T10:53:05.267Z,1001.98
2023-03-02T10:54:03.890Z,1001.98
2023-03-02T10:55:03.874Z,1001.98
2023-03-02T10:56:03.753Z,1001.99
2023-03-02T10:57:03.829Z,1001.99
2023-03-02T10:58:03.706Z,1002.00
2023-03-02T10:59:03.947Z,1001.94
2023-03-02T11:00:03.949Z,1001.96
2023-03-02T11:01:03.614Z,1001.97
2023-03-02T11:02:03.417Z,1001.94
2023-03-02T11:03:03.393Z,1001.93
2023-03-02T11:04:03.597Z,1001.90
2023-03-02T11:05:04.072Z,1001.92
2023-03-02T11:06:03.170Z,1001.95
2023-03-02T11:07:03.114Z,1001.94
2023-03-02T11:08:03.016Z,1001.91
2023-03-02T11:09:02.954Z,1001.93
2023-03-02T11:10:02.897Z,1001.93
2023-03-02T11:11:02.821Z,1001.90
2023-03-02T11:12:02.851Z,1001.90
2023-03-02T11:13:02.720Z,1001.96
2023-03-02T11:14:02.756Z,1001.90
2023-03-02T11:15:02.611Z,1001.86
2023-03-02T11:16:02.641Z,1001.89
2023-03-02T11:17:03.484Z,1001.88
2023-03-02T11:18:02.820Z,1001.93
2023-03-02T11:19:02.843Z,1001.86
2023-03-02T11:20:02.277Z,1001.90
2023-03-02T11:23:00.875Z,1001.85
2023-03-02T11:24:01.841Z,1001.84
2023-03-02T11:25:01.779Z,1001.83
2023-03-02T11:26:01.718Z,1001.82
2023-03-02T11:27:01.605Z,1001.80
2023-03-02T11:28:01.596Z,1001.82
2023-03-02T11:29:01.539Z,1001.80
2023-03-02T11:30:01.449Z,1001.78
2023-03-02T11:31:01.502Z,1001.84
2023-03-02T11:32:01.478Z,1001.80
2023-03-02T11:33:01.323Z,1001.80
2023-03-02T11:34:07.859Z,1001.70
2023-03-02T11:35:01.562Z,1001.71
2023-03-02T11:36:01.266Z,1001.72
2023-03-02T11:37:00.979Z,1001.68
2023-03-02T11:38:01.292Z,1001.67
2023-03-02T11:39:00.901Z,1001.70
2023-03-02T11:40:00.816Z,1001.73
2023-03-02T11:41:00.770Z,1001.71
2023-03-02T11:42:00.741Z,1001.65
2023-03-02T11:43:00.614Z,1001.68
2023-03-02T11:44:00.592Z,1001.64
2023-03-02T11:45:00.515Z,1001.63
2023-03-02T11:46:00.488Z,1001.64
2023-03-02T11:47:00.470Z,1001.64
2023-03-02T11:48:03.472Z,1001.67
2023-03-02T11:49:01.540Z,1001.58
2023-03-02T11:50:00.305Z,1001.60
2023-03-02T11:51:00.603Z,1001.61
2023-03-02T11:52:00.068Z,1001.54
2023-03-02T11:53:00.031Z,1001.50
2023-03-02T11:54:00.017Z,1001.53
2023-03-02T11:55:00.098Z,1001.48
2023-03-02T11:56:00.162Z,1001.49
2023-03-02T11:57:00.130Z,1001.48
2023-03-02T11:58:59.962Z,1001.41
2023-03-02T11:59:59.743Z,1001.46
2023-03-02T12:00:59.619Z,1001.38
2023-03-02T12:01:59.774Z,1001.39
2023-03-02T12:02:59.408Z,1001.41
2023-03-02T12:03:59.368Z,1001.42
2023-03-02T12:04:59.507Z,1001.38
2023-03-02T12:05:59.221Z,1001.35
2023-03-02T12:06:59.141Z,1001.42
2023-03-02T12:07:59.150Z,1001.35
2023-03-02T12:09:00.652Z,1001.34
2023-03-02T12:10:00.974Z,1001.34
2023-03-02T12:11:00.413Z,1001.36
2023-03-02T12:12:00.396Z,1001.36
2023-03-02T12:13:02.380Z,1001.34
2023-03-02T12:14:00.376Z,1001.32
2023-03-02T12:15:01.879Z,1001.31
2023-03-02T12:16:01.481Z,1001.31
2023-03-02T12:16:59.616Z,1001.23
2023-03-02T12:17:58.517Z,1001.24
2023-03-02T12:18:58.399Z,1001.15
2023-03-02T12:19:58.335Z,1001.23
2023-03-02T12:20:58.305Z,1001.26
2023-03-02T12:21:58.277Z,1001.20